Time;durP1;ratioP1;P1;durP2;ratioP2;P2;SDS_P1;SDS_P2;PMS_P1;PMS_P2;Temp;Humidity;BMP_temperature;BMP_pressure;BME280_temperature;BME280_humidity;BME280_pressure;Samples;Min_cycle;Max_cycle;Signal;HPM_P1;HPM_P2
2023/12/11 00:00:24;;;;;;;15.87;6.80;;;;;;;5.51;100.00;101584.56;2089102;28;20196;-67
2023/12/11 00:01:32;;;;;;;11.90;6.30;;;;;;;6.09;100.00;101688.25;2089042;28;20192;-67
2023/12/11 00:02:32;;;;;;;14.82;7.20;;;;;;;5.36;100.00;101577.31;2095981;28;20202;-67
2023/12/11 00:03:33;;;;;;;13.60;7.00;;;;;;;5.68;100.00;101622.47;2091827;28;20486;-67
2023/12/11 00:04:34;;;;;;;13.93;7.27;;;;;;;6.07;100.00;101685.09;2093412;28;20210;-67
2023/12/11 00:05:38;;;;;;;13.63;7.00;;;;;;;5.95;100.00;101670.78;2096988;28;20188;-67
2023/12/11 00:06:38;;;;;;;12.93;6.13;;;;;;;6.11;100.00;101693.38;2095457;28;20171;-67
2023/12/11 00:07:39;;;;;;;14.23;7.27;;;;;;;6.13;100.00;101696.53;2088819;28;20240;-67
2023/12/11 00:08:39;;;;;;;12.67;6.20;;;;;;;5.64;100.00;101607.91;2088958;28;20601;-67
2023/12/11 00:09:40;;;;;;;14.53;6.47;;;;;;;6.21;100.00;101698.22;2096306;28;20200;-67
2023/12/11 00:10:40;;;;;;;11.47;6.33;;;;;;;6.23;100.00;101698.59;2097404;28;20180;-67
2023/12/11 00:11:41;;;;;;;11.97;6.40;;;;;;;6.19;100.00;101697.78;2096820;28;20219;-67
2023/12/11 00:12:41;;;;;;;12.50;6.27;;;;;;;6.19;100.00;101704.06;2093403;28;20292;-67
2023/12/11 00:13:42;;;;;;;13.80;7.33;;;;;;;6.13;100.00;101689.06;2088760;28;20183;-67
2023/12/11 00:14:42;;;;;;;13.67;6.87;;;;;;;6.17;100.00;101692.66;2088979;28;20200;-67
2023/12/11 00:15:43;;;;;;;11.10;6.67;;;;;;;6.08;100.00;101680.34;2088799;28;20177;-67
2023/12/11 00:16:45;;;;;;;10.97;6.53;;;;;;;6.16;100.00;101696.56;2089301;28;20176;-67
2023/12/11 00:17:45;;;;;;;11.93;6.32;;;;;;;6.16;100.00;101695.78;2090773;28;20588;-67
2023/12/11 00:18:46;;;;;;;12.93;7.23;;;;;;;6.17;100.00;101689.91;2097033;28;20214;-67
2023/12/11 00:19:46;;;;;;;11.83;6.57;;;;;;;6.15;100.00;101696.97;2097419;28;20180;-67
2023/12/11 00:20:47;;;;;;;12.97;7.10;;;;;;;6.11;100.00;101699.66;2093828;28;20189;-67
2023/12/11 00:21:47;;;;;;;12.87;6.70;;;;;;;6.11;100.00;101698.88;2092936;28;20182;-67
2023/12/11 00:22:48;;;;;;;12.03;6.33;;;;;;;6.10;100.00;101691.78;2103791;28;20171;-67
2023/12/11 00:23:49;;;;;;;12.40;6.93;;;;;;;6.07;100.00;101698.84;2089025;28;20200;-67
2023/12/11 00:24:49;;;;;;;13.10;7.10;;;;;;;6.07;100.00;101696.09;2104725;28;20202;-67
2023/12/11 00:25:50;;;;;;;14.33;6.67;;;;;;;6.08;100.00;101702.38;2092052;28;20184;-67
2023/12/11 00:26:50;;;;;;;12.47;6.47;;;;;;;6.09;100.00;101699.25;2099017;28;20202;-67
2023/12/11 00:27:51;;;;;;;11.67;6.27;;;;;;;6.09;100.00;101696.50;2097421;28;20260;-67
2023/12/11 00:28:51;;;;;;;13.77;6.63;;;;;;;6.07;100.00;101698.03;2091137;28;20171;-67
2023/12/11 00:29:52;;;;;;;14.03;6.67;;;;;;;6.09;100.00;101698.44;2095243;28;20196;-67
2023/12/11 00:30:53;;;;;;;12.23;6.90;;;;;;;5.95;100.00;101679.81;2089094;28;20188;-67
2023/12/11 00:31:53;;;;;;;12.73;6.57;;;;;;;6.07;100.00;101696.09;2105751;28;20690;-67
2023/12/11 00:32:54;;;;;;;15.00;6.87;;;;;;;6.05;100.00;101701.16;2090998;28;20213;-67
2023/12/11 00:33:54;;;;;;;12.40;6.37;;;;;;;5.96;100.00;101684.19;2100735;28;20304;-67
2023/12/11 00:34:55;;;;;;;12.27;6.83;;;;;;;6.16;100.00;101698.53;2096324;28;20275;-67
2023/12/11 00:35:55;;;;;;;12.17;5.97;;;;;;;6.14;100.00;101698.09;2092019;28;20190;-67
2023/12/11 00:36:56;;;;;;;11.90;6.30;;;;;;;6.03;100.00;101687.00;2095146;28;20175;-67
2023/12/11 00:37:56;;;;;;;12.17;6.23;;;;;;;6.12;100.00;101705.97;2089161;28;20171;-67
2023/12/11 00:38:57;;;;;;;12.93;6.37;;;;;;;5.85;100.00;101654.94;2097311;28;20216;-67
2023/12/11 00:39:57;;;;;;;15.60;7.07;;;;;;;6.17;100.00;101700.13;2096455;28;20180;-67
2023/12/11 00:40:58;;;;;;;12.73;6.97;;;;;;;6.20;100.00;101697.41;2096521;28;20602;-67
2023/12/11 00:41:58;;;;;;;10.07;6.33;;;;;;;5.97;100.00;101663.75;2092050;28;20184;-67
2023/12/11 00:42:59;;;;;;;11.40;5.90;;;;;;;6.19;100.00;101701.31;2096490;28;20581;-68
2023/12/11 00:43:59;;;;;;;12.77;6.40;;;;;;;5.89;100.00;101647.53;2101277;28;20234;-67
2023/12/11 00:45:00;;;;;;;12.50;6.00;;;;;;;6.22;100.00;101708.84;2097552;28;20729;-67
2023/12/11 00:46:00;;;;;;;11.03;6.30;;;;;;;6.20;100.00;101697.41;2105711;28;20171;-67
2023/12/11 00:47:04;;;;;;;13.07;6.97;;;;;;;6.28;100.00;101707.34;2088942;28;20267;-67
2023/12/11 00:48:04;;;;;;;12.52;6.72;;;;;;;6.30;100.00;101710.47;2103212;28;20324;-67
2023/12/11 00:49:05;;;;;;;11.73;6.13;;;;;;;6.35;100.00;101701.13;2093346;28;20345;-67
2023/12/11 00:50:06;;;;;;;10.50;5.17;;;;;;;6.14;100.00;101673.34;2092906;28;20211;-67
2023/12/11 00:51:06;;;;;;;10.37;5.60;;;;;;;5.45;100.00;101570.38;2097204;28;20217;-67
2023/12/11 00:52:07;;;;;;;11.73;6.47;;;;;;;6.37;100.00;101710.59;2099139;28;20242;-67
2023/12/11 00:53:08;;;;;;;11.10;6.07;;;;;;;5.73;100.00;101603.69;2103496;28;20185;-67
2023/12/11 00:54:08;;;;;;;12.43;6.20;;;;;;;6.31;100.00;101701.06;2088937;28;20183;-67
2023/12/11 00:55:09;;;;;;;12.17;6.77;;;;;;;6.33;100.00;101698.72;2096371;28;20277;-67
2023/12/11 00:56:09;;;;;;;13.60;6.07;;;;;;;6.29;100.00;101697.09;2096988;28;20273;-67
2023/12/11 00:57:11;;;;;;;11.77;6.33;;;;;;;6.32;100.00;101696.34;2097148;28;20254;-67
2023/12/11 00:58:11;;;;;;;11.93;6.75;;;;;;;6.34;100.00;101696.75;2096513;28;20218;-67
2023/12/11 00:59:12;;;;;;;11.73;6.13;;;;;;;6.36;100.00;101697.19;2096630;28;20190;-67
2023/12/11 01:00:13;;;;;;;13.40;6.20;;;;;;;6.37;100.00;101696.00;2096943;28;20649;-67
2023/12/11 01:01:13;;;;;;;12.20;5.87;;;;;;;6.33;100.00;101698.72;2097362;28;20195;-67
2023/12/11 01:02:14;;;;;;;11.83;6.10;;;;;;;6.24;100.00;101686.41;2098285;28;20414;-67
2023/12/11 01:03:14;;;;;;;10.40;5.50;;;;;;;6.31;100.00;101694.78;2094733;28;20229;-67
2023/12/11 01:04:15;;;;;;;11.73;6.60;;;;;;;6.27;100.00;101691.19;2089406;28;20217;-67
2023/12/11 01:05:16;;;;;;;11.27;5.33;;;;;;;5.40;100.00;101570.72;2096505;28;20681;-67
2023/12/11 01:06:16;;;;;;;12.53;5.23;;;;;;;6.21;100.00;101693.47;2096324;28;20265;-67
2023/12/11 01:07:17;;;;;;;11.63;5.93;;;;;;;6.19;100.00;101698.56;2090334;28;20257;-68
2023/12/11 01:08:17;;;;;;;11.70;5.90;;;;;;;5.24;100.00;101550.09;2093743;28;20195;-67
2023/12/11 01:09:18;;;;;;;12.17;5.90;;;;;;;6.22;100.00;101699.78;2092053;28;20258;-68
2023/12/11 01:10:18;;;;;;;12.83;6.53;;;;;;;6.24;100.00;101697.44;2091420;28;20688;-68
2023/12/11 01:11:19;;;;;;;13.30;6.03;;;;;;;6.29;100.00;101683.31;2095347;28;20228;-67
2023/12/11 01:12:19;;;;;;;10.30;5.80;;;;;;;6.25;100.00;101677.78;2088565;28;20204;-67
2023/12/11 01:13:20;;;;;;;11.00;5.77;;;;;;;6.29;100.00;101677.81;2088913;28;20172;-67
2023/12/11 01:14:20;;;;;;;14.23;6.30;;;;;;;6.30;100.00;101677.44;2095946;28;20280;-67
2023/12/11 01:15:21;;;;;;;12.30;6.10;;;;;;;6.27;100.00;101680.97;2091008;28;20214;-67
2023/12/11 01:16:22;;;;;;;13.27;6.10;;;;;;;6.28;100.00;101674.28;2098158;28;20615;-67
2023/12/11 01:17:22;;;;;;;10.73;5.63;;;;;;;6.24;100.00;101678.16;2098555;28;20224;-67
2023/12/11 01:18:24;;;;;;;11.57;6.33;;;;;;;6.14;100.00;101678.84;2092596;28;20173;-67
2023/12/11 01:19:24;;;;;;;10.38;5.38;;;;;;;6.26;100.00;101676.63;2103563;28;20696;-67
2023/12/11 01:20:25;;;;;;;13.30;5.90;;;;;;;6.26;100.00;101673.09;2097260;28;20575;-68
2023/12/11 01:21:25;;;;;;;11.63;6.17;;;;;;;6.21;100.00;101667.94;2105138;28;20217;-67
2023/12/11 01:22:26;;;;;;;11.60;6.60;;;;;;;6.26;100.00;101681.34;2091336;28;20200;-67
2023/12/11 01:23:26;;;;;;;10.33;5.80;;;;;;;5.23;100.00;101532.03;2099033;28;20199;-67
2023/12/11 01:24:27;;;;;;;12.37;6.17;;;;;;;6.18;100.00;101693.44;2097104;28;20402;-67
2023/12/11 01:25:27;;;;;;;11.83;6.30;;;;;;;6.06;100.00;101677.19;2091291;28;20675;-67
2023/12/11 01:26:28;;;;;;;13.30;6.03;;;;;;;6.10;100.00;101692.56;2096922;28;20192;-67
2023/12/11 01:27:28;;;;;;;12.13;6.37;;;;;;;6.11;100.00;101683.13;2096574;28;20262;-67
2023/12/11 01:28:29;;;;;;;10.93;6.13;;;;;;;6.13;100.00;101680.81;2096956;28;20172;-68
2023/12/11 01:29:29;;;;;;;11.83;5.87;;;;;;;6.14;100.00;101689.84;2096336;28;20187;-67
2023/12/11 01:30:30;;;;;;;11.50;5.97;;;;;;;6.12;100.00;101687.50;2104412;28;20190;-68
2023/12/11 01:31:30;;;;;;;11.30;5.97;;;;;;;6.10;100.00;101689.81;2097279;28;20663;-67
2023/12/11 01:32:31;;;;;;;12.10;5.40;;;;;;;6.11;100.00;101676.84;2090227;28;20189;-67
2023/12/11 01:33:32;;;;;;;13.30;6.47;;;;;;;6.10;100.00;101667.03;2092124;28;20260;-67
2023/12/11 01:34:33;;;;;;;12.57;5.97;;;;;;;6.16;100.00;101680.03;2099579;28;20164;-67
2023/12/11 01:35:37;;;;;;;12.10;6.43;;;;;;;6.17;100.00;101672.59;2107021;28;20180;-67
2023/12/11 01:36:38;;;;;;;12.10;6.72;;;;;;;6.15;100.00;101678.47;2098815;28;20176;-67
2023/12/11 01:37:38;;;;;;;14.13;6.13;;;;;;;6.20;100.00;101674.59;2097822;28;20195;-67
2023/12/11 01:38:39;;;;;;;12.27;6.03;;;;;;;6.19;100.00;101675.75;2098156;28;20220;-67
2023/12/11 01:39:39;;;;;;;11.63;6.63;;;;;;;6.18;100.00;101676.91;2097921;28;20219;-67
2023/12/11 01:40:40;;;;;;;13.60;6.90;;;;;;;6.22;100.00;101684.06;2094994;28;20188;-67
2023/12/11 01:41:40;;;;;;;12.13;6.17;;;;;;;6.22;100.00;101680.50;2092163;28;20205;-67
2023/12/11 01:42:41;;;;;;;12.80;6.07;;;;;;;6.20;100.00;101678.13;2098532;28;20187;-67
2023/12/11 01:43:41;;;;;;;11.60;6.40;;;;;;;6.03;100.00;101650.41;2098483;28;20201;-67
2023/12/11 01:44:42;;;;;;;13.53;6.93;;;;;;;6.21;100.00;101676.97;2098639;28;20183;-67
2023/12/11 01:45:42;;;;;;;13.80;6.63;;;;;;;6.26;100.00;101673.09;2098068;28;20195;-67
2023/12/11 01:46:44;;;;;;;12.20;6.10;;;;;;;6.28;100.00;101671.53;2093298;28;20211;-67
2023/12/11 01:47:44;;;;;;;13.77;6.53;;;;;;;6.28;100.00;101671.53;2089921;28;20276;-67
2023/12/11 01:48:45;;;;;;;12.43;6.43;;;;;;;6.27;100.00;101678.22;2092737;28;20440;-68
2023/12/11 01:49:46;;;;;;;12.10;6.10;;;;;;;6.19;100.00;101670.25;2096067;28;20591;-67
2023/12/11 01:50:47;;;;;;;12.33;5.90;;;;;;;6.19;100.00;101671.06;2090104;28;20535;-67
2023/12/11 01:51:48;;;;;;;13.07;6.47;;;;;;;6.14;100.00;101667.84;2089772;28;20181;-67
2023/12/11 01:52:48;;;;;;;14.07;7.03;;;;;;;5.91;100.00;101643.25;2089689;28;20720;-67
2023/12/11 01:53:50;;;;;;;12.10;6.57;;;;;;;6.22;100.00;101672.25;2089850;28;20543;-67
2023/12/11 01:54:51;;;;;;;11.73;6.87;;;;;;;6.23;100.00;101665.56;2089994;28;20550;-67
2023/12/11 01:55:52;;;;;;;12.93;6.97;;;;;;;6.25;100.00;101661.28;2089999;28;20540;-67
2023/12/11 01:56:53;;;;;;;12.43;6.37;;;;;;;6.23;100.00;101658.13;2092787;28;20181;-67
2023/12/11 01:57:54;;;;;;;12.60;6.33;;;;;;;6.25;100.00;101655.78;2098114;28;20201;-67
2023/12/11 01:58:55;;;;;;;12.47;6.47;;;;;;;6.25;100.00;101652.25;2097923;28;20653;-67
2023/12/11 01:59:56;;;;;;;11.33;6.03;;;;;;;6.18;100.00;101641.94;2089820;28;20811;-67
2023/12/11 02:00:56;;;;;;;15.70;6.43;;;;;;;5.92;100.00;101611.00;2090016;28;20274;-67
2023/12/11 02:01:57;;;;;;;13.53;6.83;;;;;;;6.24;100.00;101647.88;2089928;28;20442;-67
2023/12/11 02:02:58;;;;;;;12.57;6.43;;;;;;;6.26;100.00;101649.09;2090005;28;20182;-67
2023/12/11 02:03:59;;;;;;;13.73;7.23;;;;;;;6.28;100.00;101645.97;2090011;28;20206;-67
2023/12/11 02:05:00;;;;;;;13.43;6.40;;;;;;;6.24;100.00;101645.13;2092103;28;20497;-67
2023/12/11 02:06:00;;;;;;;11.13;6.40;;;;;;;6.20;100.00;101647.09;2098773;28;20179;-67
2023/12/11 02:07:01;;;;;;;14.50;7.20;;;;;;;6.17;100.00;101643.13;2106082;28;20177;-67
2023/12/11 02:08:01;;;;;;;13.07;6.40;;;;;;;6.16;100.00;101643.50;2089578;28;20657;-67
2023/12/11 02:09:03;;;;;;;13.27;7.00;;;;;;;6.13;100.00;101650.53;2096682;28;20230;-67
2023/12/11 02:10:05;;;;;;;13.75;6.82;;;;;;;6.13;100.00;101639.53;2103371;28;20216;-67
2023/12/11 02:11:06;;;;;;;12.82;6.65;;;;;;;6.12;100.00;101648.16;2097655;28;20194;-67
2023/12/11 02:12:07;;;;;;;12.23;6.20;;;;;;;6.10;100.00;101645.00;2096401;28;20656;-67
2023/12/11 02:13:08;;;;;;;13.97;7.20;;;;;;;6.11;100.00;101650.13;2102392;28;20702;-67
2023/12/11 02:14:08;;;;;;;10.00;5.82;;;;;;;6.17;100.00;101642.31;2098708;28;20181;-67
2023/12/11 02:15:09;;;;;;;11.67;6.23;;;;;;;5.72;100.00;101571.88;2106784;28;20180;-68
2023/12/11 02:16:16;;;;;;;13.83;6.30;;;;;;;5.00;100.00;101468.94;2097763;28;20703;-67
2023/12/11 02:17:16;;;;;;;13.48;6.55;;;;;;;6.10;100.00;101637.53;2096909;28;20197;-67
2023/12/11 02:18:17;;;;;;;13.67;6.50;;;;;;;6.07;100.00;101641.06;2089617;28;20188;-67
2023/12/11 02:19:18;;;;;;;12.43;6.23;;;;;;;6.07;100.00;101638.31;2089490;28;20194;-67
2023/12/11 02:20:18;;;;;;;14.30;6.50;;;;;;;6.07;100.00;101640.25;2097666;28;20685;-68
2023/12/11 02:21:19;;;;;;;13.57;6.37;;;;;;;6.06;100.00;101641.41;2095825;28;20785;-67
2023/12/11 02:22:19;;;;;;;11.20;6.03;;;;;;;6.03;100.00;101633.91;2089725;28;20190;-67
2023/12/11 02:23:47;;;;;;;10.73;5.90;;;;;;;6.05;100.00;101626.88;2089817;28;20183;-67
2023/12/11 02:24:52;;;;;;;13.47;6.70;;;;;;;6.03;100.00;101628.41;2089980;28;20154;-67
2023/12/11 02:26:06;;;;;;;10.23;6.05;;;;;;;6.02;100.00;101627.63;2091202;28;20432;-67
2023/12/11 02:27:07;;;;;;;13.67;7.73;;;;;;;5.98;100.00;101623.25;2098238;28;20169;-68
2023/12/11 02:28:07;;;;;;;10.93;6.17;;;;;;;5.97;100.00;101629.91;2095835;28;20472;-67
2023/12/11 02:29:08;;;;;;;13.03;6.30;;;;;;;5.92;100.00;101624.75;2089127;28;20664;-67
2023/12/11 02:30:08;;;;;;;12.37;6.60;;;;;;;5.93;100.00;101623.59;2089393;28;20556;-67
2023/12/11 02:31:09;;;;;;;12.50;6.70;;;;;;;5.76;100.00;101622.22;2089806;28;20196;-67
2023/12/11 02:32:10;;;;;;;14.40;6.73;;;;;;;5.94;100.00;101625.97;2094973;28;20205;-67
2023/12/11 02:33:11;;;;;;;13.80;6.53;;;;;;;5.92;100.00;101624.75;2097277;28;20220;-67
2023/12/11 02:34:11;;;;;;;14.37;6.10;;;;;;;6.01;100.00;101630.75;2097349;28;20580;-67
2023/12/11 02:35:12;;;;;;;14.10;6.77;;;;;;;6.00;100.00;101626.44;2096069;28;20603;-67
2023/12/11 02:36:12;;;;;;;12.37;6.97;;;;;;;5.96;100.00;101623.66;2089778;28;20185;-67
2023/12/11 02:37:13;;;;;;;11.63;6.33;;;;;;;5.96;100.00;101617.34;2098223;28;20216;-67
2023/12/11 02:38:14;;;;;;;10.13;5.77;;;;;;;5.97;100.00;101618.91;2097435;28;20858;-67
2023/12/11 02:39:14;;;;;;;13.70;6.57;;;;;;;5.91;100.00;101618.47;2091609;28;20445;-67
2023/12/11 02:40:15;;;;;;;12.83;6.27;;;;;;;5.91;100.00;101621.22;2093468;28;20216;-67
2023/12/11 02:41:15;;;;;;;16.03;6.93;;;;;;;5.94;100.00;101620.47;2097535;28;20238;-67
2023/12/11 02:42:16;;;;;;;9.53;5.80;;;;;;;5.95;100.00;101607.50;2095026;28;20183;-67
2023/12/11 02:43:16;;;;;;;10.07;6.40;;;;;;;5.94;100.00;101603.19;2089612;28;20281;-67
2023/12/11 02:44:17;;;;;;;12.93;6.57;;;;;;;5.99;100.00;101619.31;2089608;28;20181;-67
2023/12/11 02:45:17;;;;;;;16.10;6.87;;;;;;;5.99;100.00;101613.81;2097507;28;20180;-67
2023/12/11 02:46:18;;;;;;;13.03;6.53;;;;;;;6.01;100.00;101614.25;2097965;28;20262;-67
2023/12/11 02:47:18;;;;;;;11.33;5.87;;;;;;;6.01;100.00;101626.03;2092753;28;20192;-67
2023/12/11 02:48:19;;;;;;;11.77;5.93;;;;;;;6.00;100.00;101616.19;2093225;28;20181;-67
2023/12/11 02:49:20;;;;;;;13.17;6.50;;;;;;;5.94;100.00;101614.97;2094200;28;20196;-67
2023/12/11 02:50:20;;;;;;;17.00;6.97;;;;;;;5.85;100.00;101617.22;2089454;28;20183;-67
2023/12/11 02:51:21;;;;;;;11.20;6.83;;;;;;;5.48;100.00;101560.59;2089532;28;20182;-67
2023/12/11 02:52:21;;;;;;;14.30;6.20;;;;;;;5.92;100.00;101616.50;2089803;28;20691;-67
2023/12/11 02:53:22;;;;;;;13.07;6.87;;;;;;;5.95;100.00;101622.03;2096698;28;20295;-67
2023/12/11 02:54:22;;;;;;;13.07;6.67;;;;;;;5.96;100.00;101618.13;2091363;28;20226;-67
2023/12/11 02:55:23;;;;;;;13.90;6.53;;;;;;;5.04;100.00;101472.53;2085233;28;20203;-67
2023/12/11 02:56:23;;;;;;;14.67;7.20;;;;;;;6.01;100.00;101620.53;2094004;28;20545;-67
2023/12/11 02:57:24;;;;;;;13.90;7.07;;;;;;;6.00;100.00;101612.66;2089567;28;20185;-67
2023/12/11 02:58:24;;;;;;;13.47;6.00;;;;;;;5.91;100.00;101603.91;2089743;28;20184;-67
2023/12/11 02:59:25;;;;;;;15.60;7.30;;;;;;;5.98;100.00;101612.22;2097421;28;20720;-67
2023/12/11 03:00:30;;;;;;;13.83;6.67;;;;;;;5.96;100.00;101614.59;2098031;28;20611;-67
2023/12/11 03:01:30;;;;;;;14.88;6.65;;;;;;;5.54;100.00;101545.34;2090808;28;20739;-67
2023/12/11 03:02:31;;;;;;;12.40;5.97;;;;;;;6.01;100.00;101615.03;2095293;28;20600;-67
2023/12/11 03:03:31;;;;;;;12.37;6.17;;;;;;;6.02;100.00;101611.13;2097302;28;20481;-67
2023/12/11 03:04:32;;;;;;;12.80;6.13;;;;;;;6.02;100.00;101613.06;2097557;28;20186;-67
2023/12/11 03:05:33;;;;;;;16.60;6.83;;;;;;;6.09;100.00;101615.88;2097375;28;20198;-67
2023/12/11 03:06:33;;;;;;;12.15;6.85;;;;;;;6.11;100.00;101614.34;2098485;28;20236;-68
2023/12/11 03:07:34;;;;;;;12.90;6.67;;;;;;;6.09;100.00;101608.44;2106314;28;20178;-67
2023/12/11 03:08:37;;;;;;;13.80;6.23;;;;;;;5.37;100.00;101488.19;2090655;28;20195;-67
2023/12/11 03:09:37;;;;;;;12.88;6.25;;;;;;;6.14;100.00;101613.59;2095677;28;20190;-67
2023/12/11 03:10:38;;;;;;;13.37;6.63;;;;;;;6.15;100.00;101620.66;2092431;28;20194;-67
2023/12/11 03:11:38;;;;;;;12.20;6.87;;;;;;;6.16;100.00;101621.47;2093406;28;20479;-67
2023/12/11 03:12:39;;;;;;;10.53;5.53;;;;;;;5.51;100.00;101521.34;2094798;28;20192;-67
2023/12/11 03:13:40;;;;;;;12.10;6.33;;;;;;;6.13;100.00;101623.03;2092453;28;20732;-67
2023/12/11 03:14:40;;;;;;;11.57;6.10;;;;;;;6.11;100.00;101624.56;2105782;28;20208;-67
2023/12/11 03:15:41;;;;;;;14.67;6.53;;;;;;;6.09;100.00;101624.94;2097850;28;20192;-67
2023/12/11 03:16:41;;;;;;;12.57;6.97;;;;;;;6.07;100.00;101616.28;2105181;28;20183;-67
2023/12/11 03:17:42;;;;;;;11.47;6.37;;;;;;;6.14;100.00;101624.59;2091402;28;20223;-67
2023/12/11 03:18:42;;;;;;;11.93;6.40;;;;;;;6.09;100.00;101626.88;2098642;28;20189;-67
2023/12/11 03:19:43;;;;;;;15.33;7.23;;;;;;;6.09;100.00;101622.19;2101862;28;20321;-67
2023/12/11 03:20:43;;;;;;;13.63;7.07;;;;;;;6.10;100.00;101617.50;2097728;28;20175;-67
2023/12/11 03:21:44;;;;;;;15.73;7.73;;;;;;;6.06;100.00;101611.94;2096684;28;20757;-67
2023/12/11 03:22:44;;;;;;;13.73;6.80;;;;;;;6.03;100.00;101601.69;2089707;28;20598;-67
2023/12/11 03:23:45;;;;;;;12.60;6.37;;;;;;;6.08;100.00;101615.09;2105025;28;20218;-67
2023/12/11 03:24:46;;;;;;;14.57;7.30;;;;;;;6.09;100.00;101613.94;2093015;28;20194;-68
2023/12/11 03:25:47;;;;;;;15.47;7.40;;;;;;;6.10;100.00;101618.25;2094380;28;20191;-67
2023/12/11 03:26:47;;;;;;;13.07;7.03;;;;;;;6.14;100.00;101618.28;2093503;28;20452;-67
2023/12/11 03:27:48;;;;;;;14.30;6.60;;;;;;;6.12;100.00;101624.19;2089136;28;20320;-67
2023/12/11 03:28:48;;;;;;;14.53;6.80;;;;;;;6.10;100.00;101621.00;2090482;28;20170;-67
2023/12/11 03:29:49;;;;;;;14.93;7.13;;;;;;;6.10;100.00;101614.75;2097114;28;20188;-67
2023/12/11 03:30:49;;;;;;;17.47;7.40;;;;;;;6.12;100.00;101617.88;2101959;28;20212;-67
2023/12/11 03:31:50;;;;;;;14.43;7.07;;;;;;;6.11;100.00;101621.81;2097251;28;20624;-67
2023/12/11 03:32:50;;;;;;;13.33;7.23;;;;;;;6.08;100.00;101622.56;2097138;28;20332;-68
2023/12/11 03:33:51;;;;;;;18.30;8.37;;;;;;;6.06;100.00;101609.19;2096762;28;20187;-67
2023/12/11 03:34:52;;;;;;;16.27;7.17;;;;;;;5.98;100.00;101613.03;2096918;28;20189;-67
2023/12/11 03:35:52;;;;;;;15.63;7.40;;;;;;;6.00;100.00;101613.44;2091378;28;20203;-67
2023/12/11 03:36:52;;;;;;;16.17;7.53;;;;;;;6.02;100.00;101602.88;2098304;28;20551;-67
2023/12/11 03:37:53;;;;;;;17.63;7.80;;;;;;;5.82;100.00;101578.66;2105918;28;20170;-67
2023/12/11 03:38:55;;;;;;;16.57;8.37;;;;;;;5.62;100.00;101555.22;2097675;28;20185;-67
2023/12/11 03:39:55;;;;;;;13.75;7.03;;;;;;;5.89;100.00;101600.75;2091573;28;20203;-67
2023/12/11 03:40:56;;;;;;;13.23;7.03;;;;;;;5.91;100.00;101607.47;2097456;28;20186;-67
2023/12/11 03:41:56;;;;;;;15.93;7.60;;;;;;;5.99;100.00;101609.13;2093406;28;20182;-67
2023/12/11 03:42:57;;;;;;;16.57;8.17;;;;;;;5.95;100.00;101611.03;2094927;28;20185;-68
2023/12/11 03:43:57;;;;;;;14.67;8.07;;;;;;;5.92;100.00;101611.00;2102676;28;20229;-67
2023/12/11 03:44:58;;;;;;;17.70;8.23;;;;;;;5.95;100.00;101615.75;2088987;28;20174;-67
2023/12/11 03:45:59;;;;;;;15.60;7.13;;;;;;;5.63;100.00;101582.38;2089463;28;20175;-67
2023/12/11 03:47:00;;;;;;;14.45;7.88;;;;;;;5.34;100.00;101536.47;2096274;28;20171;-67
2023/12/11 03:48:01;;;;;;;13.73;7.40;;;;;;;5.85;100.00;101613.69;2097010;28;20243;-67
2023/12/11 03:49:01;;;;;;;14.27;7.00;;;;;;;5.86;100.00;101613.31;2092659;28;20257;-67
2023/12/11 03:50:02;;;;;;;15.60;7.77;;;;;;;5.81;100.00;101613.66;2095765;28;20189;-67
2023/12/11 03:51:03;;;;;;;14.50;7.77;;;;;;;5.75;100.00;101611.56;2103551;28;20172;-67
2023/12/11 03:52:04;;;;;;;14.70;7.97;;;;;;;5.76;100.00;101618.66;2097314;28;20604;-67
2023/12/11 03:53:04;;;;;;;15.27;7.37;;;;;;;5.77;100.00;101623.78;2097386;28;20173;-67
2023/12/11 03:54:05;;;;;;;15.97;7.97;;;;;;;5.53;100.00;101596.00;2089340;28;20304;-67
2023/12/11 03:55:06;;;;;;;11.87;7.03;;;;;;;5.51;100.00;101606.56;2096123;28;20617;-67
2023/12/11 03:56:07;;;;;;;14.25;7.45;;;;;;;5.53;100.00;101618.78;2097192;28;20228;-67
2023/12/11 03:57:08;;;;;;;14.17;7.67;;;;;;;5.56;100.00;101619.97;2101944;28;20196;-67
2023/12/11 03:58:08;;;;;;;14.47;7.47;;;;;;;5.56;100.00;101617.22;2099038;28;20549;-67
2023/12/11 03:59:11;;;;;;;13.97;7.10;;;;;;;5.55;100.00;101618.41;2090647;28;20651;-67
2023/12/11 04:00:12;;;;;;;14.40;7.57;;;;;;;5.54;100.00;101619.56;2096989;28;20253;-67
2023/12/11 04:01:12;;;;;;;15.35;7.10;;;;;;;5.51;100.00;101617.56;2097162;28;20185;-66
2023/12/11 04:02:13;;;;;;;12.63;7.10;;;;;;;5.46;100.00;101618.69;2097232;28;20190;-67
2023/12/11 04:03:14;;;;;;;15.77;7.50;;;;;;;5.47;100.00;101622.22;2097286;28;20181;-67
2023/12/11 04:04:14;;;;;;;11.77;6.18;;;;;;;5.41;100.00;101604.47;2097325;28;20186;-67
2023/12/11 04:05:15;;;;;;;15.53;7.33;;;;;;;5.31;100.00;101586.69;2096516;28;20744;-67
2023/12/11 04:06:16;;;;;;;16.87;7.93;;;;;;;5.38;100.00;101605.25;2096508;28;20759;-67
2023/12/11 04:07:16;;;;;;;15.83;7.53;;;;;;;5.31;100.00;101627.13;2097432;28;20246;-67
2023/12/11 04:08:17;;;;;;;16.77;7.60;;;;;;;5.28;100.00;101614.91;2096836;28;20709;-67
2023/12/11 04:09:17;;;;;;;13.30;7.07;;;;;;;5.27;100.00;101609.78;2105437;28;20207;-67
2023/12/11 04:10:18;;;;;;;16.27;7.90;;;;;;;5.16;100.00;101606.91;2091080;28;20177;-67
2023/12/11 04:11:18;;;;;;;13.93;7.00;;;;;;;4.74;100.00;101547.84;2095052;28;20686;-67
2023/12/11 04:12:19;;;;;;;13.90;7.40;;;;;;;5.15;100.00;101613.56;2097148;28;20183;-67
2023/12/11 04:13:19;;;;;;;19.47;7.60;;;;;;;4.87;100.00;101577.44;2097294;28;20252;-67
2023/12/11 04:14:20;;;;;;;13.77;7.57;;;;;;;4.72;100.00;101564.66;2096427;28;20264;-68
2023/12/11 04:15:20;;;;;;;16.17;7.87;;;;;;;5.06;100.00;101613.03;2095969;28;20575;-67
2023/12/11 04:16:21;;;;;;;14.47;7.27;;;;;;;5.05;100.00;101610.66;2088954;28;20208;-67
2023/12/11 04:17:21;;;;;;;13.27;7.03;;;;;;;5.01;100.00;101618.06;2088889;28;20181;-67
2023/12/11 04:18:22;;;;;;;15.77;7.60;;;;;;;4.97;100.00;101611.75;2095205;28;20191;-67
2023/12/11 04:19:22;;;;;;;13.97;7.53;;;;;;;4.98;100.00;101618.81;2096713;28;20177;-67
2023/12/11 04:20:23;;;;;;;12.70;6.67;;;;;;;4.93;100.00;101627.38;2101245;28;20269;-67
2023/12/11 04:21:24;;;;;;;13.20;7.40;;;;;;;4.89;100.00;101616.34;2100212;28;20182;-68
2023/12/11 04:22:24;;;;;;;13.93;7.37;;;;;;;4.88;100.00;101620.22;2090410;28;20196;-67
2023/12/11 04:23:25;;;;;;;13.07;6.80;;;;;;;4.74;100.00;101598.06;2096946;28;20216;-67
2023/12/11 04:24:25;;;;;;;14.47;7.37;;;;;;;4.87;100.00;101620.63;2097473;28;20181;-67
2023/12/11 04:25:26;;;;;;;13.27;7.13;;;;;;;4.73;100.00;101606.66;2097105;28;20735;-67
2023/12/11 04:26:26;;;;;;;12.80;6.47;;;;;;;4.82;100.00;101618.19;2097177;28;20608;-67
2023/12/11 04:27:27;;;;;;;14.27;7.70;;;;;;;4.82;100.00;101621.72;2092426;28;20189;-67
2023/12/11 04:28:28;;;;;;;12.33;7.13;;;;;;;4.72;100.00;101608.59;2091157;28;20650;-67
2023/12/11 04:29:28;;;;;;;13.10;6.90;;;;;;;4.77;100.00;101621.25;2093493;28;20689;-67
2023/12/11 04:30:29;;;;;;;16.00;6.97;;;;;;;3.97;100.00;101500.78;2089692;28;20180;-67
2023/12/11 04:31:29;;;;;;;12.13;6.87;;;;;;;4.73;100.00;101628.63;2097254;28;20665;-67
2023/12/11 04:32:30;;;;;;;13.87;6.77;;;;;;;4.71;100.00;101623.50;2089577;28;20195;-67
2023/12/11 04:33:32;;;;;;;16.97;8.40;;;;;;;4.69;100.00;101620.34;2095244;28;20188;-67
2023/12/11 04:34:33;;;;;;;17.52;8.88;;;;;;;4.67;100.00;101633.63;2091889;28;20199;-67
2023/12/11 04:35:33;;;;;;;15.23;6.57;;;;;;;4.48;100.00;101592.56;2092909;28;20645;-67
2023/12/11 04:36:34;;;;;;;14.53;6.90;;;;;;;4.68;100.00;101618.75;2094437;28;20539;-67
2023/12/11 04:37:34;;;;;;;12.93;6.83;;;;;;;4.65;100.00;101621.44;2088639;28;20232;-67
2023/12/11 04:38:35;;;;;;;10.43;6.23;;;;;;;4.43;100.00;101592.06;2088920;28;20183;-67
2023/12/11 04:39:35;;;;;;;10.83;5.87;;;;;;;4.62;100.00;101620.22;2105110;28;20224;-67